sensor_id;sensor_type;location;lat;lon;timestamp;pressure;altitude;pressure_sealevel;temperature;humidity
57594;BME280;43423;46.510;6.686;2023-03-01T00:01:07;96701.59;;;0.51;68.32
57594;BME280;43423;46.510;6.686;2023-03-01T00:03:34;96699.38;;;0.42;68.34
57594;BME280;43423;46.510;6.686;2023-03-01T00:06:00;96691.97;;;0.46;67.92
57594;BME280;43423;46.510;6.686;2023-03-01T00:08:26;96695.00;;;0.52;67.31
57594;BME280;43423;46.510;6.686;2023-03-01T00:11:01;96703.09;;;0.55;66.91
57594;BME280;43423;46.510;6.686;2023-03-01T00:13:27;96696.69;;;0.39;67.75
57594;BME280;43423;46.510;6.686;2023-03-01T00:15:52;96692.84;;;0.40;68.29
57594;BME280;43423;46.510;6.686;2023-03-01T00:18:18;96683.25;;;0.32;68.25
57594;BME280;43423;46.510;6.686;2023-03-01T00:20:54;96683.91;;;0.43;68.47
57594;BME280;43423;46.510;6.686;2023-03-01T00:23:22;96684.06;;;0.32;68.38
57594;BME280;43423;46.510;6.686;2023-03-01T00:25:48;96676.78;;;0.25;68.44
57594;BME280;43423;46.510;6.686;2023-03-01T00:28:14;96689.00;;;0.37;68.65
57594;BME280;43423;46.510;6.686;2023-03-01T00:30:40;96683.19;;;0.39;68.57
57594;BME280;43423;46.510;6.686;2023-03-01T00:33:06;96677.38;;;0.40;68.29
57594;BME280;43423;46.510;6.686;2023-03-01T00:35:32;96675.47;;;0.37;67.78
57594;BME280;43423;46.510;6.686;2023-03-01T00:37:58;96674.34;;;0.35;68.60
57594;BME280;43423;46.510;6.686;2023-03-01T00:40:24;96674.38;;;0.31;68.68
57594;BME280;43423;46.510;6.686;2023-03-01T00:42:50;96681.38;;;0.28;68.32
57594;BME280;43423;46.510;6.686;2023-03-01T00:45:16;96691.84;;;0.26;68.64
57594;BME280;43423;46.510;6.686;2023-03-01T00:47:42;96691.00;;;0.33;68.91
57594;BME280;43423;46.510;6.686;2023-03-01T00:50:09;96685.88;;;0.39;68.06
57594;BME280;43423;46.510;6.686;2023-03-01T00:52:35;96681.88;;;0.20;68.60
57594;BME280;43423;46.510;6.686;2023-03-01T00:55:00;96679.00;;;0.34;68.66
57594;BME280;43423;46.510;6.686;2023-03-01T00:57:26;96671.31;;;0.33;68.24
57594;BME280;43423;46.510;6.686;2023-03-01T00:59:51;96677.50;;;0.30;68.39
57594;BME280;43423;46.510;6.686;2023-03-01T01:02:20;96671.38;;;0.25;68.54
57594;BME280;43423;46.510;6.686;2023-03-01T01:04:46;96676.66;;;0.36;68.84
57594;BME280;43423;46.510;6.686;2023-03-01T01:07:13;96666.69;;;0.30;68.48
57594;BME280;43423;46.510;6.686;2023-03-01T01:09:38;96680.56;;;0.32;68.62
57594;BME280;43423;46.510;6.686;2023-03-01T01:12:05;96679.00;;;0.34;68.39
57594;BME280;43423;46.510;6.686;2023-03-01T01:14:30;96663.56;;;0.31;68.59
57594;BME280;43423;46.510;6.686;2023-03-01T01:16:56;96675.38;;;0.44;68.43
57594;BME280;43423;46.510;6.686;2023-03-01T01:19:22;96667.78;;;0.36;68.63
57594;BME280;43423;46.510;6.686;2023-03-01T01:21:48;96666.31;;;0.27;68.92
57594;BME280;43423;46.510;6.686;2023-03-01T01:24:15;96670.88;;;0.34;68.58
57594;BME280;43423;46.510;6.686;2023-03-01T01:26:42;96664.72;;;0.34;68.30
57594;BME280;43423;46.510;6.686;2023-03-01T01:29:07;96655.06;;;0.33;68.35
57594;BME280;43423;46.510;6.686;2023-03-01T01:31:35;96654.34;;;0.28;68.91
57594;BME280;43423;46.510;6.686;2023-03-01T01:34:02;96657.41;;;0.31;68.67
57594;BME280;43423;46.510;6.686;2023-03-01T01:36:28;96660.28;;;0.16;68.62
57594;BME280;43423;46.510;6.686;2023-03-01T01:38:54;96648.22;;;0.24;68.97
57594;BME280;43423;46.510;6.686;2023-03-01T01:41:21;96656.63;;;0.30;68.60
57594;BME280;43423;46.510;6.686;2023-03-01T01:44:33;96657.81;;;0.29;68.36
57594;BME280;43423;46.510;6.686;2023-03-01T01:46:36;96646.19;;;0.32;68.89
57594;BME280;43423;46.510;6.686;2023-03-01T01:49:07;96637.19;;;0.39;68.76
57594;BME280;43423;46.510;6.686;2023-03-01T01:51:40;96650.38;;;0.37;68.60
57594;BME280;43423;46.510;6.686;2023-03-01T01:54:33;96637.97;;;0.39;68.62
57594;BME280;43423;46.510;6.686;2023-03-01T01:57:03;96637.28;;;0.32;68.17
57594;BME280;43423;46.510;6.686;2023-03-01T01:59:32;96637.19;;;0.39;68.61
57594;BME280;43423;46.510;6.686;2023-03-01T02:02:00;96631.78;;;0.39;68.13
57594;BME280;43423;46.510;6.686;2023-03-01T02:04:27;96629.41;;;0.44;69.02
57594;BME280;43423;46.510;6.686;2023-03-01T02:07:15;96637.56;;;0.41;68.47
57594;BME280;43423;46.510;6.686;2023-03-01T02:09:48;96631.75;;;0.42;69.09
57594;BME280;43423;46.510;6.686;2023-03-01T02:12:17;96626.38;;;0.39;68.19
57594;BME280;43423;46.510;6.686;2023-03-01T02:14:43;96634.78;;;0.48;68.81
57594;BME280;43423;46.510;6.686;2023-03-01T02:17:10;96631.25;;;0.51;68.10
57594;BME280;43423;46.510;6.686;2023-03-01T02:19:49;96628.44;;;0.58;67.56
57594;BME280;43423;46.510;6.686;2023-03-01T02:22:28;96633.59;;;0.49;68.88
57594;BME280;43423;46.510;6.686;2023-03-01T02:30:28;96619.03;;;0.39;68.56
57594;BME280;43423;46.510;6.686;2023-03-01T02:32:56;96611.56;;;0.47;68.42
57594;BME280;43423;46.510;6.686;2023-03-01T02:35:30;96611.22;;;0.45;68.01
57594;BME280;43423;46.510;6.686;2023-03-01T02:37:58;96611.97;;;0.49;68.83
57594;BME280;43423;46.510;6.686;2023-03-01T02:40:28;96616.38;;;0.36;68.93
57594;BME280;43423;46.510;6.686;2023-03-01T02:42:56;96612.41;;;0.44;68.55
57594;BME280;43423;46.510;6.686;2023-03-01T02:45:23;96602.09;;;0.35;68.52
57594;BME280;43423;46.510;6.686;2023-03-01T02:47:49;96601.75;;;0.33;68.39
57594;BME280;43423;46.510;6.686;2023-03-01T02:52:52;96597.03;;;0.37;68.72
57594;BME280;43423;46.510;6.686;2023-03-01T02:55:21;96590.94;;;0.33;68.24
57594;BME280;43423;46.510;6.686;2023-03-01T02:57:47;96591.97;;;0.39;68.83
57594;BME280;43423;46.510;6.686;2023-03-01T03:00:21;96591.50;;;0.48;68.75
57594;BME280;43423;46.510;6.686;2023-03-01T03:02:53;96588.41;;;0.46;68.29
57594;BME280;43423;46.510;6.686;2023-03-01T03:05:25;96591.28;;;0.35;68.84
57594;BME280;43423;46.510;6.686;2023-03-01T03:07:51;96585.34;;;0.44;68.47
57594;BME280;43423;46.510;6.686;2023-03-01T03:10:25;96583.16;;;0.35;68.74
57594;BME280;43423;46.510;6.686;2023-03-01T03:13:02;96573.00;;;0.43;68.88
57594;BME280;43423;46.510;6.686;2023-03-01T03:15:29;96573.84;;;0.40;68.44
57594;BME280;43423;46.510;6.686;2023-03-01T03:17:56;96571.47;;;0.42;69.04
57594;BME280;43423;46.510;6.686;2023-03-01T03:20:24;96564.53;;;0.41;68.83
57594;BME280;43423;46.510;6.686;2023-03-01T03:22:52;96565.25;;;0.45;68.45
57594;BME280;43423;46.510;6.686;2023-03-01T03:25:19;96569.94;;;0.41;68.60
57594;BME280;43423;46.510;6.686;2023-03-01T03:27:46;96566.09;;;0.38;69.12
57594;BME280;43423;46.510;6.686;2023-03-01T03:30:17;96567.28;;;0.37;68.95
57594;BME280;43423;46.510;6.686;2023-03-01T03:32:44;96563.13;;;0.33;69.10
57594;BME280;43423;46.510;6.686;2023-03-01T03:35:22;96553.72;;;0.41;68.99
57594;BME280;43423;46.510;6.686;2023-03-01T03:37:50;96555.66;;;0.40;68.71
57594;BME280;43423;46.510;6.686;2023-03-01T03:40:36;96554.53;;;0.38;68.59
57594;BME280;43423;46.510;6.686;2023-03-01T03:43:04;96559.31;;;0.26;69.28
57594;BME280;43423;46.510;6.686;2023-03-01T03:45:30;96553.44;;;0.32;68.92
57594;BME280;43423;46.510;6.686;2023-03-01T03:48:03;96553.09;;;0.30;68.85
57594;BME280;43423;46.510;6.686;2023-03-01T03:50:30;96551.00;;;0.14;69.46
57594;BME280;43423;46.510;6.686;2023-03-01T03:52:56;96558.59;;;0.22;69.12
57594;BME280;43423;46.510;6.686;2023-03-01T03:55:21;96548.09;;;0.28;69.49
57594;BME280;43423;46.510;6.686;2023-03-01T03:57:47;96546.97;;;0.25;69.21
57594;BME280;43423;46.510;6.686;2023-03-01T04:00:21;96540.66;;;0.36;69.56
57594;BME280;43423;46.510;6.686;2023-03-01T04:02:48;96548.31;;;0.41;68.73
57594;BME280;43423;46.510;6.686;2023-03-01T04:05:16;96551.78;;;0.41;68.93
57594;BME280;43423;46.510;6.686;2023-03-01T04:07:43;96555.69;;;0.37;68.71
57594;BME280;43423;46.510;6.686;2023-03-01T04:10:15;96549.59;;;0.33;68.61
57594;BME280;43423;46.510;6.686;2023-03-01T04:12:42;96543.28;;;0.39;69.21
57594;BME280;43423;46.510;6.686;2023-03-01T04:15:12;96542.69;;;0.28;68.94
57594;BME280;43423;46.510;6.686;2023-03-01T04:17:43;96545.84;;;0.23;68.63
57594;BME280;43423;46.510;6.686;2023-03-01T04:20:14;96541.19;;;0.23;68.90
57594;BME280;43423;46.510;6.686;2023-03-01T04:22:43;96537.69;;;0.26;68.92
57594;BME280;43423;46.510;6.686;2023-03-01T04:25:12;96525.25;;;0.33;68.71
57594;BME280;43423;46.510;6.686;2023-03-01T04:27:39;96526.03;;;0.30;68.47
57594;BME280;43423;46.510;6.686;2023-03-01T04:30:06;96527.75;;;0.20;69.17
57594;BME280;43423;46.510;6.686;2023-03-01T04:32:33;96520.75;;;0.22;69.26
57594;BME280;43423;46.510;6.686;2023-03-01T04:34:58;96525.69;;;0.27;69.01
57594;BME280;43423;46.510;6.686;2023-03-01T04:37:25;96513.69;;;0.28;68.92
57594;BME280;43423;46.510;6.686;2023-03-01T04:39:50;96510.34;;;0.21;68.61
57594;BME280;43423;46.510;6.686;2023-03-01T04:42:16;96508.41;;;0.21;69.41
57594;BME280;43423;46.510;6.686;2023-03-01T04:44:43;96509.06;;;0.29;68.69
57594;BME280;43423;46.510;6.686;2023-03-01T04:47:08;96510.31;;;0.24;68.50
57594;BME280;43423;46.510;6.686;2023-03-01T04:49:34;96504.41;;;0.30;69.06
57594;BME280;43423;46.510;6.686;2023-03-01T04:52:00;96507.47;;;0.32;68.84
57594;BME280;43423;46.510;6.686;2023-03-01T04:54:33;96513.47;;;0.19;69.07
57594;BME280;43423;46.510;6.686;2023-03-01T04:57:00;96518.41;;;0.24;69.09
57594;BME280;43423;46.510;6.686;2023-03-01T04:59:26;96518.41;;;0.24;68.85
57594;BME280;43423;46.510;6.686;2023-03-01T05:01:53;96521.56;;;0.19;69.34
57594;BME280;43423;46.510;6.686;2023-03-01T05:04:23;96510.94;;;0.05;69.38
57594;BME280;43423;46.510;6.686;2023-03-01T05:06:49;96511.63;;;0.13;69.74
57594;BME280;43423;46.510;6.686;2023-03-01T05:09:14;96509.34;;;0.08;69.15
57594;BME280;43423;46.510;6.686;2023-03-01T05:11:40;96506.97;;;0.13;69.55
57594;BME280;43423;46.510;6.686;2023-03-01T05:14:06;96510.09;;;0.12;69.26
57594;BME280;43423;46.510;6.686;2023-03-01T05:16:34;96500.38;;;0.14;69.13
57594;BME280;43423;46.510;6.686;2023-03-01T05:18:59;96510.53;;;0.07;69.70
57594;BME280;43423;46.510;6.686;2023-03-01T05:21:26;96509.47;;;0.01;69.56
57594;BME280;43423;46.510;6.686;2023-03-01T05:23:51;96508.66;;;0.04;69.81
57594;BME280;43423;46.510;6.686;2023-03-01T05:26:19;96509.09;;;-0.02;69.12
57594;BME280;43423;46.510;6.686;2023-03-01T05:28:47;96503.94;;;0.08;69.24
57594;BME280;43423;46.510;6.686;2023-03-01T05:31:13;96496.25;;;0.06;69.76
57594;BME280;43423;46.510;6.686;2023-03-01T05:33:40;96507.84;;;0.07;69.73
57594;BME280;43423;46.510;6.686;2023-03-01T05:36:08;96493.13;;;0.08;69.32
57594;BME280;43423;46.510;6.686;2023-03-01T05:38:35;96498.66;;;0.01;69.76
57594;BME280;43423;46.510;6.686;2023-03-01T05:41:00;96491.91;;;0.12;69.70
57594;BME280;43423;46.510;6.686;2023-03-01T05:43:30;96494.28;;;0.10;69.94
57594;BME280;43423;46.510;6.686;2023-03-01T05:45:57;96492.38;;;0.07;69.87
57594;BME280;43423;46.510;6.686;2023-03-01T05:48:23;96486.25;;;0.03;70.40
57594;BME280;43423;46.510;6.686;2023-03-01T05:50:48;96495.44;;;0.09;70.19
57594;BME280;43423;46.510;6.686;2023-03-01T05:53:19;96498.59;;;0.04;70.28
57594;BME280;43423;46.510;6.686;2023-03-01T05:55:48;96492.88;;;-0.02;70.43
57594;BME280;43423;46.510;6.686;2023-03-01T05:58:17;96495.59;;;-0.02;70.23
57594;BME280;43423;46.510;6.686;2023-03-01T06:00:44;96497.13;;;-0.01;71.03
57594;BME280;43423;46.510;6.686;2023-03-01T06:03:12;96498.69;;;-0.03;70.91
57594;BME280;43423;46.510;6.686;2023-03-01T06:05:39;96493.28;;;-0.03;70.68
57594;BME280;43423;46.510;6.686;2023-03-01T06:08:05;96496.16;;;-0.14;71.07
57594;BME280;43423;46.510;6.686;2023-03-01T06:10:31;96499.53;;;-0.06;70.54
57594;BME280;43423;46.510;6.686;2023-03-01T06:12:57;96497.94;;;-0.04;70.63
57594;BME280;43423;46.510;6.686;2023-03-01T06:15:23;96504.16;;;-0.07;70.99
57594;BME280;43423;46.510;6.686;2023-03-01T06:17:50;96505.03;;;-0.13;70.75
57594;BME280;43423;46.510;6.686;2023-03-01T06:20:19;96504.16;;;-0.07;70.97
57594;BME280;43423;46.510;6.686;2023-03-01T06:22:45;96501.81;;;-0.05;70.74
57594;BME280;43423;46.510;6.686;2023-03-01T06:25:14;96503.31;;;0.00;70.76
57594;BME280;43423;46.510;6.686;2023-03-01T06:27:41;96500.63;;;0.00;70.60
57594;BME280;43423;46.510;6.686;2023-03-01T06:30:12;96499.63;;;0.14;71.10
57594;BME280;43423;46.510;6.686;2023-03-01T06:32:40;96506.66;;;0.08;70.72
57594;BME280;43423;46.510;6.686;2023-03-01T06:35:13;96500.88;;;0.09;70.17
57594;BME280;43423;46.510;6.686;2023-03-01T06:37:39;96501.47;;;0.20;70.79
57594;BME280;43423;46.510;6.686;2023-03-01T06:40:07;96505.59;;;0.02;70.86
57594;BME280;43423;46.510;6.686;2023-03-01T06:42:37;96504.00;;;0.04;70.78
57594;BME280;43423;46.510;6.686;2023-03-01T06:45:04;96503.31;;;0.00;70.46
57594;BME280;43423;46.510;6.686;2023-03-01T06:47:30;96495.56;;;0.02;71.45
57594;BME280;43423;46.510;6.686;2023-03-01T06:49:56;96487.09;;;0.00;70.79
57594;BME280;43423;46.510;6.686;2023-03-01T06:52:22;96498.59;;;0.04;71.28
57594;BME280;43423;46.510;6.686;2023-03-01T06:54:47;96487.72;;;0.08;70.87
57594;BME280;43423;46.510;6.686;2023-03-01T06:57:13;96492.34;;;0.11;71.04
57594;BME280;43423;46.510;6.686;2023-03-01T06:59:38;96493.09;;;0.11;70.36
57594;BME280;43423;46.510;6.686;2023-03-01T07:02:04;96488.53;;;0.08;70.85
57594;BME280;43423;46.510;6.686;2023-03-01T07:04:29;96486.88;;;0.14;70.40
57594;BME280;43423;46.510;6.686;2023-03-01T07:06:55;96480.69;;;0.14;70.89
57594;BME280;43423;46.510;6.686;2023-03-01T07:09:22;96486.38;;;-0.04;70.88
57594;BME280;43423;46.510;6.686;2023-03-01T07:11:48;96491.41;;;-0.06;71.35
57594;BME280;43423;46.510;6.686;2023-03-01T07:14:15;96480.84;;;0.03;70.85
57594;BME280;43423;46.510;6.686;2023-03-01T07:16:40;96480.66;;;0.17;70.96
57594;BME280;43423;46.510;6.686;2023-03-01T07:19:06;96481.09;;;0.12;70.70
57594;BME280;43423;46.510;6.686;2023-03-01T07:21:32;96477.53;;;0.19;69.65
57594;BME280;43423;46.510;6.686;2023-03-01T07:23:57;96477.03;;;0.27;69.69
57594;BME280;43423;46.510;6.686;2023-03-01T07:26:23;96476.94;;;0.31;70.20
57594;BME280;43423;46.510;6.686;2023-03-01T07:28:48;96477.97;;;0.41;70.74
57594;BME280;43423;46.510;6.686;2023-03-01T07:31:14;96473.25;;;0.45;69.79
57594;BME280;43423;46.510;6.686;2023-03-01T07:33:39;96484.81;;;0.49;69.28
57594;BME280;43423;46.510;6.686;2023-03-01T07:36:05;96479.31;;;0.52;69.65
57594;BME280;43423;46.510;6.686;2023-03-01T07:38:31;96480.97;;;0.46;69.49
57594;BME280;43423;46.510;6.686;2023-03-01T07:41:01;96475.44;;;0.53;68.95
57594;BME280;43423;46.510;6.686;2023-03-01T07:43:29;96479.03;;;0.47;69.33
57594;BME280;43423;46.510;6.686;2023-03-01T07:45:58;96472.31;;;0.55;69.37
57594;BME280;43423;46.510;6.686;2023-03-01T07:48:23;96471.16;;;0.56;69.20
57594;BME280;43423;46.510;6.686;2023-03-01T07:50:49;96470.78;;;0.54;69.40
57594;BME280;43423;46.510;6.686;2023-03-01T07:53:14;96461.09;;;0.57;69.57
57594;BME280;43423;46.510;6.686;2023-03-01T07:55:40;96460.56;;;0.65;68.68
57594;BME280;43423;46.510;6.686;2023-03-01T07:58:05;96462.56;;;0.61;69.70
57594;BME280;43423;46.510;6.686;2023-03-01T08:00:31;96463.16;;;0.72;69.17
57594;BME280;43423;46.510;6.686;2023-03-01T08:02:59;96459.38;;;0.66;68.42
57594;BME280;43423;46.510;6.686;2023-03-01T08:05:26;96458.78;;;0.78;69.15
57594;BME280;43423;46.510;6.686;2023-03-01T08:07:52;96460.34;;;0.79;69.02
57594;BME280;43423;46.510;6.686;2023-03-01T08:10:17;96465.44;;;0.74;69.30
57594;BME280;43423;46.510;6.686;2023-03-01T08:12:43;96461.69;;;0.68;68.78
57594;BME280;43423;46.510;6.686;2023-03-01T08:15:09;96468.47;;;0.56;69.29
57594;BME280;43423;46.510;6.686;2023-03-01T08:17:35;96468.38;;;0.60;68.86
57594;BME280;43423;46.510;6.686;2023-03-01T08:20:00;96467.69;;;0.55;69.17
57594;BME280;43423;46.510;6.686;2023-03-01T08:22:26;96469.91;;;0.61;69.31
57594;BME280;43423;46.510;6.686;2023-03-01T08:24:51;96466.91;;;0.55;68.92
57594;BME280;43423;46.510;6.686;2023-03-01T08:27:17;96463.81;;;0.57;69.19
57594;BME280;43423;46.510;6.686;2023-03-01T08:29:42;96469.56;;;0.59;69.18
57594;BME280;43423;46.510;6.686;2023-03-01T08:32:08;96470.75;;;0.58;69.01
57594;BME280;43423;46.510;6.686;2023-03-01T08:34:33;96475.31;;;0.61;69.06
57594;BME280;43423;46.510;6.686;2023-03-01T08:37:01;96467.31;;;0.53;68.98
57594;BME280;43423;46.510;6.686;2023-03-01T08:39:27;96466.16;;;0.54;68.36
57594;BME280;43423;46.510;6.686;2023-03-01T08:41:53;96470.00;;;0.57;68.51
57594;BME280;43423;46.510;6.686;2023-03-01T08:44:18;96467.63;;;0.59;68.79
57594;BME280;43423;46.510;6.686;2023-03-01T08:46:46;96465.97;;;0.65;68.59
57594;BME280;43423;46.510;6.686;2023-03-01T08:49:15;96469.16;;;0.60;68.87
57594;BME280;43423;46.510;6.686;2023-03-01T08:51:41;96459.03;;;0.64;69.17
57594;BME280;43423;46.510;6.686;2023-03-01T08:54:11;96463.31;;;0.62;68.56
57594;BME280;43423;46.510;6.686;2023-03-01T08:56:38;96464.91;;;0.59;69.19
57594;BME280;43423;46.510;6.686;2023-03-01T08:59:03;96459.44;;;0.63;68.69
57594;BME280;43423;46.510;6.686;2023-03-01T09:01:29;96457.03;;;0.68;68.53
57594;BME280;43423;46.510;6.686;2023-03-01T09:03:54;96449.50;;;0.79;68.19
57594;BME280;43423;46.510;6.686;2023-03-01T09:06:21;96456.44;;;0.80;67.33
57594;BME280;43423;46.510;6.686;2023-03-01T09:08:48;96447.13;;;0.81;67.40
57594;BME280;43423;46.510;6.686;2023-03-01T09:11:17;96462.19;;;0.82;67.35
57594;BME280;43423;46.510;6.686;2023-03-01T09:13:44;96450.06;;;0.91;67.62
57594;BME280;43423;46.510;6.686;2023-03-01T09:16:10;96450.75;;;0.95;67.20
57594;BME280;43423;46.510;6.686;2023-03-01T09:18:36;96448.88;;;0.92;66.95
57594;BME280;43423;46.510;6.686;2023-03-01T09:21:10;96447.06;;;0.85;66.92
57594;BME280;43423;46.510;6.686;2023-03-01T09:23:38;96457.84;;;0.89;67.19
57594;BME280;43423;46.510;6.686;2023-03-01T09:26:09;96456.47;;;1.00;68.37
57594;BME280;43423;46.510;6.686;2023-03-01T09:28:35;96464.41;;;1.11;68.21
57594;BME280;43423;46.510;6.686;2023-03-01T09:31:02;96459.66;;;1.15;67.54
57594;BME280;43423;46.510;6.686;2023-03-01T09:33:30;96451.13;;;1.17;67.61
57594;BME280;43423;46.510;6.686;2023-03-01T09:36:01;96453.47;;;1.15;67.02
57594;BME280;43423;46.510;6.686;2023-03-01T09:38:26;96452.59;;;1.21;67.47
57594;BME280;43423;46.510;6.686;2023-03-01T09:40:52;96448.50;;;1.13;66.94
57594;BME280;43423;46.510;6.686;2023-03-01T09:43:53;96453.34;;;1.22;66.28
57594;BME280;43423;46.510;6.686;2023-03-01T09:46:24;96454.38;;;1.08;66.41
57594;BME280;43423;46.510;6.686;2023-03-01T09:48:55;96449.47;;;1.03;66.82
57594;BME280;43423;46.510;6.686;2023-03-01T09:51:26;96436.59;;;1.07;66.80
57594;BME280;43423;46.510;6.686;2023-03-01T09:53:52;96447.84;;;1.05;66.27
57594;BME280;43423;46.510;6.686;2023-03-01T09:56:41;96446.25;;;1.08;66.23
57594;BME280;43423;46.510;6.686;2023-03-01T10:02:39;96439.38;;;1.23;66.08
57594;BME280;43423;46.510;6.686;2023-03-01T10:08:26;96437.56;;;1.17;65.83
57594;BME280;43423;46.510;6.686;2023-03-01T10:10:53;96439.88;;;1.18;65.52
57594;BME280;43423;46.510;6.686;2023-03-01T10:16:03;96434.25;;;1.09;65.54
57594;BME280;43423;46.510;6.686;2023-03-01T10:18:31;96431.75;;;1.18;66.48
57594;BME280;43423;46.510;6.686;2023-03-01T10:21:00;96437.16;;;1.18;65.90
57594;BME280;43423;46.510;6.686;2023-03-01T10:23:30;96430.84;;;1.25;66.10
57594;BME280;43423;46.510;6.686;2023-03-01T10:28:47;96425.28;;;1.32;65.22
57594;BME280;43423;46.510;6.686;2023-03-01T10:31:19;96425.09;;;1.43;65.42
57594;BME280;43423;46.510;6.686;2023-03-01T10:33:45;96424.91;;;1.50;65.36
57594;BME280;43423;46.510;6.686;2023-03-01T10:36:13;96409.22;;;1.61;65.37
57594;BME280;43423;46.510;6.686;2023-03-01T10:38:52;96413.19;;;1.73;65.00
57594;BME280;43423;46.510;6.686;2023-03-01T10:41:20;96417.84;;;1.72;64.06
57594;BME280;43423;46.510;6.686;2023-03-01T10:43:57;96420.41;;;1.79;63.98
57594;BME280;43423;46.510;6.686;2023-03-01T10:46:29;96424.59;;;1.84;63.92
57594;BME280;43423;46.510;6.686;2023-03-01T10:51:35;96423.50;;;1.98;63.12
57594;BME280;43423;46.510;6.686;2023-03-01T10:54:02;96420.44;;;1.95;63.43
57594;BME280;43423;46.510;6.686;2023-03-01T10:56:45;96412.41;;;2.08;63.97
57594;BME280;43423;46.510;6.686;2023-03-01T10:59:26;96410.94;;;2.04;63.35
57594;BME280;43423;46.510;6.686;2023-03-01T11:02:30;96411.31;;;2.06;62.76
57594;BME280;43423;46.510;6.686;2023-03-01T11:07:54;96396.41;;;2.14;62.54
57594;BME280;43423;46.510;6.686;2023-03-01T11:10:25;96393.16;;;2.19;63.13
57594;BME280;43423;46.510;6.686;2023-03-01T11:12:53;96393.09;;;2.22;61.86
57594;BME280;43423;46.510;6.686;2023-03-01T11:15:22;96388.25;;;2.30;63.39
57594;BME280;43423;46.510;6.686;2023-03-01T11:17:48;96395.19;;;2.31;61.97
57594;BME280;43423;46.510;6.686;2023-03-01T11:22:47;96386.47;;;2.23;62.61
57594;BME280;43423;46.510;6.686;2023-03-01T11:25:15;96389.78;;;2.31;62.44
57594;BME280;43423;46.510;6.686;2023-03-01T11:27:44;96389.50;;;2.42;62.47
57594;BME280;43423;46.510;6.686;2023-03-01T11:35:36;96368.38;;;2.49;62.62
57594;BME280;43423;46.510;6.686;2023-03-01T11:38:16;96379.72;;;2.61;61.94
57594;BME280;43423;46.510;6.686;2023-03-01T11:40:47;96373.63;;;2.57;62.18
57594;BME280;43423;46.510;6.686;2023-03-01T11:43:23;96376.56;;;2.62;61.29
57594;BME280;43423;46.510;6.686;2023-03-01T11:54:25;96369.72;;;2.58;62.08
57594;BME280;43423;46.510;6.686;2023-03-01T11:57:02;96358.19;;;2.54;61.57
57594;BME280;43423;46.510;6.686;2023-03-01T11:59:48;96355.81;;;2.56;62.89
57594;BME280;43423;46.510;6.686;2023-03-01T12:02:36;96362.75;;;2.57;61.94
57594;BME280;43423;46.510;6.686;2023-03-01T12:05:24;96360.19;;;2.66;60.49
57594;BME280;43423;46.510;6.686;2023-03-01T12:08:12;96358.56;;;2.68;61.54
57594;BME280;43423;46.510;6.686;2023-03-01T12:10:56;96357.91;;;2.64;60.35
57594;BME280;43423;46.510;6.686;2023-03-01T12:18:59;96349.03;;;2.47;60.88
57594;BME280;43423;46.510;6.686;2023-03-01T12:24:56;96347.88;;;2.77;62.27
57594;BME280;43423;46.510;6.686;2023-03-01T12:27:44;96343.31;;;2.87;60.43
57594;BME280;43423;46.510;6.686;2023-03-01T12:33:19;96341.69;;;2.77;61.11
57594;BME280;43423;46.510;6.686;2023-03-01T12:38:50;96338.72;;;2.71;62.34
57594;BME280;43423;46.510;6.686;2023-03-01T12:41:46;96337.91;;;2.87;63.43
57594;BME280;43423;46.510;6.686;2023-03-01T12:44:44;96328.63;;;2.72;61.22
57594;BME280;43423;46.510;6.686;2023-03-01T12:47:23;96327.88;;;2.84;61.91
57594;BME280;43423;46.510;6.686;2023-03-01T12:49:56;96328.66;;;2.85;61.39
57594;BME280;43423;46.510;6.686;2023-03-01T12:52:37;96324.63;;;2.89;63.01
57594;BME280;43423;46.510;6.686;2023-03-01T12:55:08;96324.31;;;2.87;62.58
57594;BME280;43423;46.510;6.686;2023-03-01T12:57:53;96323.91;;;3.01;62.28
57594;BME280;43423;46.510;6.686;2023-03-01T13:00:35;96323.03;;;3.04;61.05
57594;BME280;43423;46.510;6.686;2023-03-01T13:03:14;96319.78;;;2.97;61.09
57594;BME280;43423;46.510;6.686;2023-03-01T13:11:19;96323.91;;;3.01;61.44
57594;BME280;43423;46.510;6.686;2023-03-01T13:13:46;96314.84;;;2.92;60.85
57594;BME280;43423;46.510;6.686;2023-03-01T13:19:18;96310.03;;;3.12;61.50
57594;BME280;43423;46.510;6.686;2023-03-01T13:21:46;96309.25;;;3.12;62.34
57594;BME280;43423;46.510;6.686;2023-03-01T13:29:47;96304.28;;;3.23;60.09
57594;BME280;43423;46.510;6.686;2023-03-01T13:32:29;96309.50;;;3.30;60.50
57594;BME280;43423;46.510;6.686;2023-03-01T13:37:40;96313.53;;;3.38;60.01
57594;BME280;43423;46.510;6.686;2023-03-01T13:42:44;96311.25;;;3.36;60.53
57594;BME280;43423;46.510;6.686;2023-03-01T13:45:34;96302.31;;;3.36;60.38
57594;BME280;43423;46.510;6.686;2023-03-01T13:48:08;96301.22;;;3.21;60.15
57594;BME280;43423;46.510;6.686;2023-03-01T13:50:42;96301.63;;;3.06;61.44
57594;BME280;43423;46.510;6.686;2023-03-01T13:53:14;96301.88;;;3.12;61.07
57594;BME280;43423;46.510;6.686;2023-03-01T13:55:45;96307.09;;;3.19;60.24
57594;BME280;43423;46.510;6.686;2023-03-01T13:58:32;96302.97;;;3.27;61.33
57594;BME280;43423;46.510;6.686;2023-03-01T14:01:06;96311.56;;;3.26;61.48
57594;BME280;43423;46.510;6.686;2023-03-01T14:03:39;96302.75;;;3.22;60.22
57594;BME280;43423;46.510;6.686;2023-03-01T14:06:13;96310.03;;;3.12;61.03
57594;BME280;43423;46.510;6.686;2023-03-01T14:08:41;96312.63;;;3.16;61.08
57594;BME280;43423;46.510;6.686;2023-03-01T14:14:04;96306.13;;;3.13;60.48
57594;BME280;43423;46.510;6.686;2023-03-01T14:19:26;96299.56;;;2.98;60.97
57594;BME280;43423;46.510;6.686;2023-03-01T14:22:12;96304.25;;;2.97;61.91
57594;BME280;43423;46.510;6.686;2023-03-01T14:24:46;96295.00;;;3.07;61.88
57594;BME280;43423;46.510;6.686;2023-03-01T14:27:13;96283.28;;;3.23;61.19
57594;BME280;43423;46.510;6.686;2023-03-01T14:29:40;96291.44;;;3.11;61.28
57594;BME280;43423;46.510;6.686;2023-03-01T14:32:24;96286.88;;;3.20;61.45
57594;BME280;43423;46.510;6.686;2023-03-01T14:34:50;96285.38;;;3.19;61.52
57594;BME280;43423;46.510;6.686;2023-03-01T14:37:27;96284.84;;;3.24;60.76
57594;BME280;43423;46.510;6.686;2023-03-01T14:39:54;96275.16;;;3.11;60.19
57594;BME280;43423;46.510;6.686;2023-03-01T14:42:22;96281.88;;;3.19;61.25
57594;BME280;43423;46.510;6.686;2023-03-01T14:44:51;96280.25;;;3.21;60.73